createdAt,value
2018-05-27T00:00:33.128Z,0
2018-05-27T00:01:41.783Z,0
2018-05-27T00:02:50.429Z,0
2018-05-27T00:03:59.081Z,0
2018-05-27T00:05:07.726Z,0
2018-05-27T00:06:16.370Z,0
2018-05-27T00:07:25.283Z,0
2018-05-27T00:08:33.930Z,0
2018-05-27T00:09:42.576Z,0
2018-05-27T00:10:51.492Z,0
2018-05-27T00:12:00.135Z,0
2018-05-27T00:13:08.786Z,0
2018-05-27T00:14:17.436Z,0
2018-05-27T00:15:26.089Z,0
2018-05-27T00:16:34.736Z,0
2018-05-27T00:17:43.665Z,0
2018-05-27T00:18:52.315Z,0
2018-05-27T00:20:01.223Z,0
2018-05-27T00:21:09.873Z,0
2018-05-27T00:22:18.525Z,0
2018-05-27T00:23:27.180Z,0
2018-05-27T00:24:35.823Z,0
2018-05-27T00:25:44.474Z,0
2018-05-27T00:26:53.122Z,0
2018-05-27T00:28:01.777Z,0
2018-05-27T00:29:10.420Z,0
2018-05-27T00:30:19.074Z,0
2018-05-27T00:31:27.983Z,0
2018-05-27T00:32:36.647Z,0
2018-05-27T00:33:45.284Z,0
2018-05-27T00:34:53.934Z,0
2018-05-27T00:36:02.851Z,0
2018-05-27T00:37:11.495Z,0
2018-05-27T00:38:20.149Z,0
2018-05-27T00:39:28.799Z,0
2018-05-27T00:40:37.447Z,0
2018-05-27T00:41:46.092Z,0
2018-05-27T00:42:54.748Z,0
2018-05-27T00:44:03.392Z,0
2018-05-27T00:45:12.047Z,0
2018-05-27T00:46:20.954Z,0
2018-05-27T00:47:29.874Z,0
2018-05-27T00:48:38.525Z,0
2018-05-27T00:49:47.178Z,0
2018-05-27T00:50:56.083Z,0
2018-05-27T00:52:05.005Z,0
2018-05-27T00:53:13.664Z,0
2018-05-27T00:54:22.310Z,0
2018-05-27T00:55:30.960Z,0
2018-05-27T00:56:39.600Z,0
2018-05-27T00:57:48.253Z,0
2018-05-27T00:58:57.163Z,0
2018-05-27T01:00:05.821Z,0
2018-05-27T01:01:14.732Z,0
2018-05-27T01:02:23.390Z,0
2018-05-27T01:03:32.299Z,0
2018-05-27T01:04:40.955Z,0
2018-05-27T01:05:49.595Z,0
2018-05-27T01:06:58.244Z,0
2018-05-27T01:08:07.158Z,0
2018-05-27T01:09:15.810Z,0
2018-05-27T01:10:24.452Z,0
2018-05-27T01:11:33.100Z,0
2018-05-27T01:12:42.011Z,0
2018-05-27T01:13:50.654Z,0
2018-05-27T01:14:59.306Z,0
2018-05-27T01:16:07.955Z,0
2018-05-27T01:17:16.609Z,0
2018-05-27T01:18:25.244Z,0
2018-05-27T01:19:33.900Z,0
2018-05-27T01:20:42.541Z,0
2018-05-27T01:21:51.196Z,0
2018-05-27T01:22:59.834Z,0
2018-05-27T01:24:08.491Z,0
2018-05-27T01:25:17.136Z,0
2018-05-27T01:26:25.786Z,0
2018-05-27T01:27:34.425Z,0
2018-05-27T01:28:43.075Z,0
2018-05-27T01:29:51.733Z,0
2018-05-27T01:31:00.379Z,0
2018-05-27T01:32:09.302Z,0
2018-05-27T01:33:17.940Z,0
2018-05-27T01:34:26.592Z,0
2018-05-27T01:35:35.235Z,0
2018-05-27T01:36:43.891Z,0
2018-05-27T01:37:52.790Z,0
2018-05-27T01:39:01.444Z,0
2018-05-27T01:40:10.615Z,0
2018-05-27T01:41:19.312Z,0
2018-05-27T01:42:27.912Z,0
2018-05-27T01:43:36.558Z,0
2018-05-27T01:44:45.207Z,0
2018-05-27T01:45:53.849Z,0
2018-05-27T01:47:02.498Z,0
2018-05-27T01:48:11.141Z,0
2018-05-27T01:49:19.791Z,0
2018-05-27T01:50:28.440Z,0
2018-05-27T01:51:37.086Z,0
2018-05-27T01:52:45.736Z,0
2018-05-27T01:53:54.379Z,0
2018-05-27T01:55:03.292Z,0
2018-05-27T01:56:12.205Z,0
2018-05-27T01:57:20.852Z,0
2018-05-27T01:58:29.499Z,0
2018-05-27T01:59:38.161Z,0
2018-05-27T02:00:47.329Z,0
2018-05-27T02:01:55.978Z,0
2018-05-27T02:03:04.629Z,0
2018-05-27T02:04:13.281Z,0
2018-05-27T02:05:21.926Z,0
2018-05-27T02:06:30.573Z,0
2018-05-27T02:07:39.222Z,0
2018-05-27T02:08:47.863Z,0
2018-05-27T02:09:56.516Z,0
2018-05-27T02:11:05.162Z,0
2018-05-27T02:12:13.810Z,0
2018-05-27T02:13:22.451Z,0
2018-05-27T02:14:31.104Z,0
2018-05-27T02:15:39.750Z,0
2018-05-27T02:16:48.397Z,0
2018-05-27T02:17:57.041Z,0
2018-05-27T02:19:05.694Z,0
2018-05-27T02:20:14.341Z,0
2018-05-27T02:21:22.989Z,0
2018-05-27T02:22:31.632Z,0
2018-05-27T02:23:40.289Z,0
2018-05-27T02:24:49.209Z,0
2018-05-27T02:25:57.858Z,0
2018-05-27T02:27:06.507Z,0
2018-05-27T02:28:15.420Z,0
2018-05-27T02:29:24.067Z,0
2018-05-27T02:30:32.719Z,0
2018-05-27T02:31:41.367Z,0
2018-05-27T02:32:50.017Z,0
2018-05-27T02:33:58.941Z,0
2018-05-27T02:35:07.601Z,0
2018-05-27T02:36:16.519Z,0
2018-05-27T02:37:25.434Z,0
2018-05-27T02:38:34.085Z,0
2018-05-27T02:39:42.995Z,0
2018-05-27T02:40:51.651Z,0
2018-05-27T02:42:00.296Z,0
2018-05-27T02:43:09.204Z,0
2018-05-27T02:44:17.849Z,0
2018-05-27T02:45:26.762Z,0
2018-05-27T02:46:35.683Z,0
2018-05-27T02:47:44.602Z,0
2018-05-27T02:48:53.518Z,0
2018-05-27T02:50:02.445Z,0
2018-05-27T02:51:11.371Z,0
2018-05-27T02:52:20.021Z,0
2018-05-27T02:53:28.954Z,0
2018-05-27T02:54:37.847Z,0
2018-05-27T02:55:46.509Z,0
2018-05-27T02:56:55.158Z,0
2018-05-27T02:58:03.815Z,0
2018-05-27T02:59:12.461Z,0
2018-05-27T03:00:21.112Z,0
2018-05-27T03:01:30.032Z,0
2018-05-27T03:02:38.682Z,0
2018-05-27T03:03:47.338Z,0
2018-05-27T03:04:56.242Z,0
2018-05-27T03:06:05.176Z,0
2018-05-27T03:07:13.833Z,0
2018-05-27T03:08:22.482Z,0
2018-05-27T03:09:31.649Z,0
2018-05-27T03:10:40.304Z,0
2018-05-27T03:11:48.954Z,0
2018-05-27T03:12:58.163Z,0
2018-05-27T03:14:07.111Z,0
2018-05-27T03:15:15.976Z,0
2018-05-27T03:16:24.631Z,0
2018-05-27T03:17:33.287Z,0
2018-05-27T03:18:42.194Z,0
2018-05-27T03:19:50.834Z,0
2018-05-27T03:20:59.483Z,0
2018-05-27T03:22:08.129Z,5
2018-05-27T03:23:16.785Z,5
2018-05-27T03:24:25.430Z,5
2018-05-27T03:25:34.083Z,5
2018-05-27T03:26:42.718Z,5
2018-05-27T03:27:51.372Z,5
2018-05-27T03:29:00.027Z,5
2018-05-27T03:30:08.933Z,5
2018-05-27T03:31:17.582Z,5
2018-05-27T03:32:26.239Z,5
2018-05-27T03:33:35.148Z,10
2018-05-27T03:34:44.059Z,10
2018-05-27T03:35:52.698Z,10
2018-05-27T03:37:01.643Z,10
2018-05-27T03:38:10.294Z,10
2018-05-27T03:39:18.937Z,10
2018-05-27T03:40:27.852Z,10
2018-05-27T03:41:36.499Z,15
2018-05-27T03:42:45.141Z,15
2018-05-27T03:43:53.794Z,15
2018-05-27T03:45:02.695Z,15
2018-05-27T03:46:11.355Z,15
2018-05-27T03:47:20.253Z,15
2018-05-27T03:48:29.167Z,20
2018-05-27T03:49:37.802Z,20
2018-05-27T03:50:46.456Z,20
2018-05-27T03:51:55.361Z,25
2018-05-27T03:53:04.281Z,25
2018-05-27T03:54:13.178Z,25
2018-05-27T03:55:21.828Z,25
2018-05-27T03:56:30.757Z,30
2018-05-27T03:57:39.406Z,30
2018-05-27T03:58:48.055Z,35
2018-05-27T03:59:56.694Z,35
2018-05-27T04:01:05.616Z,40
2018-05-27T04:02:14.269Z,40
2018-05-27T04:03:23.177Z,45
2018-05-27T04:04:31.819Z,50
2018-05-27T04:05:40.469Z,50
2018-05-27T04:06:49.116Z,55
2018-05-27T04:07:57.772Z,55
2018-05-27T04:09:06.408Z,55
2018-05-27T04:10:15.055Z,60
2018-05-27T04:11:23.699Z,60
2018-05-27T04:12:32.621Z,65
2018-05-27T04:13:41.271Z,65
2018-05-27T04:14:49.909Z,65
2018-05-27T04:15:58.557Z,70
2018-05-27T04:17:07.200Z,70
2018-05-27T04:18:16.139Z,75
2018-05-27T04:19:25.045Z,75
2018-05-27T04:20:33.964Z,75
2018-05-27T04:21:42.868Z,75
2018-05-27T04:22:51.521Z,80
2018-05-27T04:24:00.166Z,80
2018-05-27T04:25:08.818Z,85
2018-05-27T04:26:17.739Z,85
2018-05-27T04:27:26.394Z,90
2018-05-27T04:28:35.061Z,85
2018-05-27T04:29:43.691Z,90
2018-05-27T04:30:52.333Z,90
2018-05-27T04:32:00.987Z,90
2018-05-27T04:33:09.901Z,90
2018-05-27T04:34:18.817Z,90
2018-05-27T04:35:27.732Z,90
2018-05-27T04:36:36.440Z,95
2018-05-27T04:37:45.027Z,90
2018-05-27T04:38:53.932Z,95
2018-05-27T04:40:02.582Z,100
2018-05-27T04:41:11.225Z,100
2018-05-27T04:42:19.871Z,105
2018-05-27T04:43:28.518Z,105
2018-05-27T04:44:37.169Z,110
2018-05-27T04:45:46.076Z,110
2018-05-27T04:46:54.724Z,110
2018-05-27T04:48:03.369Z,115
2018-05-27T04:49:12.027Z,115
2018-05-27T04:50:20.670Z,115
2018-05-27T04:51:29.317Z,115
2018-05-27T04:52:38.224Z,120
2018-05-27T04:53:46.867Z,120
2018-05-27T04:54:55.517Z,120
2018-05-27T04:56:04.171Z,120
2018-05-27T04:57:12.818Z,120
2018-05-27T04:58:21.460Z,120
2018-05-27T04:59:30.111Z,125
2018-05-27T05:00:38.758Z,125
2018-05-27T05:01:47.403Z,125
2018-05-27T05:02:56.046Z,130
2018-05-27T05:04:04.696Z,130
2018-05-27T05:05:13.339Z,130
2018-05-27T05:06:21.990Z,130
2018-05-27T05:07:30.897Z,135
2018-05-27T05:08:39.547Z,135
2018-05-27T05:09:48.193Z,135
2018-05-27T05:10:56.841Z,140
2018-05-27T05:12:05.489Z,140
2018-05-27T05:13:14.131Z,145
2018-05-27T05:14:23.046Z,145
2018-05-27T05:15:31.971Z,150
2018-05-27T05:16:40.627Z,150
2018-05-27T05:17:49.535Z,150
2018-05-27T05:18:58.452Z,155
2018-05-27T05:20:07.364Z,160
2018-05-27T05:21:16.014Z,160
2018-05-27T05:22:24.662Z,165
2018-05-27T05:23:33.578Z,165
2018-05-27T05:24:42.489Z,165
2018-05-27T05:25:51.408Z,165
2018-05-27T05:27:00.053Z,165
2018-05-27T05:28:08.707Z,165
2018-05-27T05:29:17.352Z,165
2018-05-27T05:30:25.991Z,165
2018-05-27T05:31:34.643Z,170
2018-05-27T05:32:43.291Z,170
2018-05-27T05:33:51.939Z,170
2018-05-27T05:35:00.581Z,170
2018-05-27T05:36:09.237Z,170
2018-05-27T05:37:17.892Z,170
2018-05-27T05:38:26.539Z,170
2018-05-27T05:39:35.185Z,175
2018-05-27T05:40:43.839Z,175
2018-05-27T05:41:52.485Z,175
2018-05-27T05:43:01.136Z,175
2018-05-27T05:44:09.777Z,175
2018-05-27T05:45:18.427Z,175
2018-05-27T05:46:27.343Z,175
2018-05-27T05:47:35.995Z,175
2018-05-27T05:48:44.644Z,175
2018-05-27T05:49:53.282Z,180
2018-05-27T05:51:01.937Z,180
2018-05-27T05:52:10.840Z,180
2018-05-27T05:53:19.498Z,180
2018-05-27T05:54:28.141Z,185
2018-05-27T05:55:36.792Z,185
2018-05-27T05:56:45.436Z,185
2018-05-27T05:57:54.093Z,185
2018-05-27T05:59:02.997Z,185
2018-05-27T06:00:11.651Z,190
2018-05-27T06:01:20.904Z,190
2018-05-27T06:02:29.561Z,190
2018-05-27T06:03:38.207Z,195
2018-05-27T06:04:46.849Z,195
2018-05-27T06:05:55.495Z,195
2018-05-27T06:07:04.142Z,200
2018-05-27T06:08:12.798Z,200
2018-05-27T06:09:21.444Z,200
2018-05-27T06:10:30.096Z,200
2018-05-27T06:11:38.736Z,200
2018-05-27T06:12:47.398Z,205
2018-05-27T06:13:56.838Z,200
2018-05-27T06:15:05.783Z,200
2018-05-27T06:16:14.690Z,200
2018-05-27T06:17:23.349Z,195
2018-05-27T06:18:31.996Z,195
2018-05-27T06:19:41.000Z,195
2018-05-27T06:20:49.610Z,195
2018-05-27T06:21:58.259Z,195
2018-05-27T06:23:06.912Z,195
2018-05-27T06:24:15.567Z,200
2018-05-27T06:25:24.217Z,205
2018-05-27T06:26:32.858Z,200
2018-05-27T06:27:41.510Z,200
2018-05-27T06:28:50.206Z,200
2018-05-27T06:29:58.820Z,200
2018-05-27T06:31:07.461Z,200
2018-05-27T06:32:16.466Z,200
2018-05-27T06:33:25.110Z,200
2018-05-27T06:34:33.764Z,200
2018-05-27T06:35:42.410Z,200
2018-05-27T06:36:51.060Z,200
2018-05-27T06:37:59.973Z,200
2018-05-27T06:39:08.625Z,200
2018-05-27T06:40:17.541Z,205
2018-05-27T06:41:26.191Z,210
2018-05-27T06:42:34.837Z,205
2018-05-27T06:43:43.485Z,205
2018-05-27T06:44:52.141Z,205
2018-05-27T06:46:01.053Z,205
2018-05-27T06:47:09.709Z,205
2018-05-27T06:48:18.616Z,205
2018-05-27T06:49:27.269Z,205
2018-05-27T06:50:35.919Z,205
2018-05-27T06:51:44.570Z,205
2018-05-27T06:52:53.220Z,205
2018-05-27T06:54:01.871Z,205
2018-05-27T06:55:10.518Z,205
2018-05-27T06:56:19.171Z,205
2018-05-27T06:57:27.815Z,205
2018-05-27T06:58:36.471Z,205
2018-05-27T06:59:45.118Z,205
2018-05-27T07:00:53.770Z,205
2018-05-27T07:02:02.421Z,205
2018-05-27T07:03:11.066Z,205
2018-05-27T07:04:19.756Z,205
2018-05-27T07:05:28.626Z,205
2018-05-27T07:06:37.279Z,205
2018-05-27T07:07:45.920Z,210
2018-05-27T07:08:54.570Z,210
2018-05-27T07:10:03.224Z,210
2018-05-27T07:11:11.883Z,210
2018-05-27T07:12:20.529Z,210
2018-05-27T07:13:29.182Z,210
2018-05-27T07:14:37.829Z,215
2018-05-27T07:15:46.746Z,210
2018-05-27T07:16:55.395Z,215
2018-05-27T07:18:04.047Z,215
2018-05-27T07:19:12.695Z,215
2018-05-27T07:20:21.343Z,215
2018-05-27T07:21:29.998Z,215
2018-05-27T07:22:38.650Z,215
2018-05-27T07:23:47.577Z,215
2018-05-27T07:24:56.222Z,210
2018-05-27T07:26:04.877Z,210
2018-05-27T07:27:13.809Z,210
2018-05-27T07:28:22.721Z,210
2018-05-27T07:29:31.635Z,210
2018-05-27T07:30:40.286Z,210
2018-05-27T07:31:48.931Z,210
2018-05-27T07:32:57.581Z,210
2018-05-27T07:34:06.237Z,210
2018-05-27T07:35:15.159Z,210
2018-05-27T07:36:24.071Z,210
2018-05-27T07:37:32.720Z,210
2018-05-27T07:38:41.367Z,210
2018-05-27T07:39:50.027Z,215
2018-05-27T07:40:58.942Z,210
2018-05-27T07:42:07.595Z,210
2018-05-27T07:43:16.243Z,210
2018-05-27T07:44:24.899Z,210
2018-05-27T07:45:33.816Z,210
2018-05-27T07:46:42.498Z,215
2018-05-27T07:47:51.382Z,210
2018-05-27T07:49:00.038Z,210
2018-05-27T07:50:08.685Z,210
2018-05-27T07:51:17.342Z,210
2018-05-27T07:52:25.987Z,210
2018-05-27T07:53:34.651Z,210
2018-05-27T07:54:43.299Z,210
2018-05-27T07:55:51.952Z,210
2018-05-27T07:57:00.614Z,210
2018-05-27T07:58:09.299Z,210
2018-05-27T07:59:18.169Z,210
2018-05-27T08:00:26.822Z,215
2018-05-27T08:01:35.480Z,210
2018-05-27T08:02:44.129Z,210
2018-05-27T08:03:53.048Z,210
2018-05-27T08:05:01.695Z,210
2018-05-27T08:06:10.357Z,210
2018-05-27T08:07:19.001Z,215
2018-05-27T08:08:27.653Z,210
2018-05-27T08:09:36.303Z,215
2018-05-27T08:10:44.960Z,215
2018-05-27T08:11:53.609Z,210
2018-05-27T08:13:02.260Z,210
2018-05-27T08:14:11.177Z,210
2018-05-27T08:15:19.832Z,210
2018-05-27T08:16:28.753Z,210
2018-05-27T08:17:37.667Z,210
2018-05-27T08:18:46.321Z,210
2018-05-27T08:19:54.972Z,210
2018-05-27T08:21:04.171Z,210
2018-05-27T08:22:12.822Z,215
2018-05-27T08:23:21.473Z,210
2018-05-27T08:24:30.124Z,210
2018-05-27T08:25:39.048Z,215
2018-05-27T08:26:47.697Z,215
2018-05-27T08:27:56.353Z,215
2018-05-27T08:29:05.002Z,215
2018-05-27T08:30:13.660Z,215
2018-05-27T08:31:22.314Z,215
2018-05-27T08:32:30.973Z,215
2018-05-27T08:33:39.628Z,215
2018-05-27T08:34:48.270Z,215
2018-05-27T08:35:56.924Z,215
2018-05-27T08:37:05.576Z,215
2018-05-27T08:38:14.238Z,215
2018-05-27T08:39:22.879Z,215
2018-05-27T08:40:31.539Z,215
2018-05-27T08:41:40.187Z,215
2018-05-27T08:42:48.849Z,215
2018-05-27T08:43:57.492Z,215
2018-05-27T08:45:06.154Z,215
2018-05-27T08:46:14.808Z,215
2018-05-27T08:47:23.469Z,215
2018-05-27T08:48:32.119Z,215
2018-05-27T08:49:40.767Z,215
2018-05-27T08:50:49.417Z,215
2018-05-27T08:51:58.067Z,215
2018-05-27T08:53:06.729Z,215
2018-05-27T08:54:15.377Z,220
2018-05-27T08:55:24.304Z,215
2018-05-27T08:56:32.943Z,220
2018-05-27T08:57:41.602Z,220
2018-05-27T08:58:50.265Z,215
2018-05-27T08:59:58.920Z,215
2018-05-27T09:01:07.575Z,215
2018-05-27T09:02:16.505Z,215
2018-05-27T09:03:25.156Z,215
2018-05-27T09:04:33.812Z,215
2018-05-27T09:05:42.457Z,215
2018-05-27T09:06:51.113Z,215
2018-05-27T09:07:59.771Z,215
2018-05-27T09:09:08.696Z,215
2018-05-27T09:10:17.355Z,215
2018-05-27T09:11:25.999Z,215
2018-05-27T09:12:34.655Z,215
2018-05-27T09:13:43.305Z,215
2018-05-27T09:14:52.230Z,215
2018-05-27T09:16:00.870Z,215
2018-05-27T09:17:09.527Z,215
2018-05-27T09:18:18.178Z,215
2018-05-27T09:19:26.836Z,215
2018-05-27T09:20:35.483Z,215
2018-05-27T09:21:44.136Z,215
2018-05-27T09:22:52.792Z,215
2018-05-27T09:24:01.450Z,215
2018-05-27T09:25:10.145Z,215
2018-05-27T09:26:19.017Z,215
2018-05-27T09:27:27.673Z,215
2018-05-27T09:28:36.324Z,215
2018-05-27T09:29:44.987Z,220
2018-05-27T09:30:53.651Z,220
2018-05-27T09:32:02.299Z,220
2018-05-27T09:33:10.937Z,220
2018-05-27T09:34:19.604Z,220
2018-05-27T09:35:28.253Z,235
2018-05-27T09:36:37.175Z,220
2018-05-27T09:37:46.083Z,220
2018-05-27T09:38:54.747Z,220
2018-05-27T09:40:03.394Z,220
2018-05-27T09:41:12.051Z,220
2018-05-27T09:42:20.698Z,220
2018-05-27T09:43:29.354Z,220
2018-05-27T09:44:38.012Z,225
2018-05-27T09:45:46.665Z,225
2018-05-27T09:46:55.334Z,210
2018-05-27T09:48:03.989Z,220
2018-05-27T09:49:13.173Z,225
2018-05-27T09:50:21.823Z,225
2018-05-27T09:51:30.505Z,225
2018-05-27T09:52:39.132Z,225
2018-05-27T09:53:47.789Z,225
2018-05-27T09:54:56.439Z,230
2018-05-27T09:56:05.101Z,225
2018-05-27T09:57:13.745Z,225
2018-05-27T09:58:22.401Z,225
2018-05-27T09:59:31.057Z,225
2018-05-27T10:00:39.717Z,225
2018-05-27T10:01:48.369Z,225
2018-05-27T10:02:57.019Z,225
2018-05-27T10:04:05.937Z,225
2018-05-27T10:05:14.591Z,225
2018-05-27T10:06:23.251Z,225
2018-05-27T10:07:31.900Z,225
2018-05-27T10:08:40.562Z,225
2018-05-27T10:09:49.206Z,225
2018-05-27T10:10:57.868Z,230
2018-05-27T10:12:06.783Z,230
2018-05-27T10:13:15.437Z,225
2018-05-27T10:14:24.082Z,225
2018-05-27T10:15:33.014Z,235
2018-05-27T10:16:41.668Z,230
2018-05-27T10:17:50.591Z,235
2018-05-27T10:18:59.251Z,235
2018-05-27T10:20:07.894Z,235
2018-05-27T10:21:16.550Z,235
2018-05-27T10:22:25.207Z,230
2018-05-27T10:23:33.861Z,235
2018-05-27T10:24:42.505Z,240
2018-05-27T10:25:51.476Z,235
2018-05-27T10:27:00.079Z,230
2018-05-27T10:28:08.747Z,230
2018-05-27T10:29:17.389Z,235
2018-05-27T10:30:26.045Z,235
2018-05-27T10:31:34.698Z,240
2018-05-27T10:32:43.372Z,245
2018-05-27T10:33:52.291Z,235
2018-05-27T10:35:01.211Z,235
2018-05-27T10:36:09.864Z,240
2018-05-27T10:37:18.525Z,245
2018-05-27T10:38:27.178Z,245
2018-05-27T10:39:35.835Z,240
2018-05-27T10:40:44.496Z,240
2018-05-27T10:41:53.142Z,225
2018-05-27T10:43:01.800Z,235
2018-05-27T10:44:10.457Z,235
2018-05-27T10:45:19.375Z,250
2018-05-27T10:46:28.026Z,250
2018-05-27T10:47:36.688Z,250
2018-05-27T10:48:45.344Z,250
2018-05-27T10:49:53.998Z,260
2018-05-27T10:51:02.648Z,250
2018-05-27T10:52:11.319Z,195
2018-05-27T10:53:19.960Z,190
2018-05-27T10:54:28.620Z,190
2018-05-27T10:55:37.291Z,190
2018-05-27T10:56:45.947Z,230
2018-05-27T10:57:54.602Z,240
2018-05-27T10:59:03.258Z,240
2018-05-27T11:00:11.917Z,250
2018-05-27T11:01:20.565Z,250
2018-05-27T11:02:29.220Z,245
2018-05-27T11:03:37.877Z,245
2018-05-27T11:04:46.541Z,245
2018-05-27T11:05:55.200Z,245
2018-05-27T11:07:03.848Z,245
2018-05-27T11:08:12.765Z,245
2018-05-27T11:09:21.422Z,245
2018-05-27T11:10:30.074Z,250
2018-05-27T11:11:38.730Z,245
2018-05-27T11:12:47.382Z,245
2018-05-27T11:13:56.046Z,245
2018-05-27T11:15:04.700Z,240
2018-05-27T11:16:13.354Z,245
2018-05-27T11:17:22.010Z,235
2018-05-27T11:18:30.928Z,240
2018-05-27T11:19:39.584Z,245
2018-05-27T11:20:48.340Z,245
2018-05-27T11:21:56.899Z,245
2018-05-27T11:23:05.550Z,250
2018-05-27T11:24:14.213Z,245
2018-05-27T11:25:22.877Z,245
2018-05-27T11:26:31.536Z,250
2018-05-27T11:27:40.457Z,250
2018-05-27T11:28:49.107Z,255
2018-05-27T11:29:57.823Z,250
2018-05-27T11:31:06.422Z,250
2018-05-27T11:32:15.347Z,245
2018-05-27T11:33:23.998Z,250
2018-05-27T11:34:32.655Z,255
2018-05-27T11:35:41.306Z,260
2018-05-27T11:36:49.979Z,260
2018-05-27T11:37:58.890Z,255
2018-05-27T11:39:07.549Z,255
2018-05-27T11:40:16.204Z,255
2018-05-27T11:41:25.124Z,250
2018-05-27T11:42:34.166Z,255
2018-05-27T11:43:42.766Z,255
2018-05-27T11:44:51.686Z,255
2018-05-27T11:46:00.338Z,250
2018-05-27T11:47:09.264Z,240
2018-05-27T11:48:17.918Z,245
2018-05-27T11:49:26.589Z,235
2018-05-27T11:50:35.765Z,215
2018-05-27T11:51:44.426Z,220
2018-05-27T11:52:53.082Z,220
2018-05-27T11:54:02.006Z,240
2018-05-27T11:55:10.948Z,220
2018-05-27T11:56:19.867Z,210
2018-05-27T11:57:28.522Z,220
2018-05-27T11:58:37.180Z,245
2018-05-27T11:59:45.842Z,200
2018-05-27T12:00:54.495Z,230
2018-05-27T12:02:03.157Z,205
2018-05-27T12:03:11.807Z,185
2018-05-27T12:04:20.466Z,185
2018-05-27T12:05:29.122Z,200
2018-05-27T12:06:37.780Z,235
2018-05-27T12:07:46.433Z,210
2018-05-27T12:08:55.096Z,205
2018-05-27T12:10:04.301Z,260
2018-05-27T12:11:12.959Z,240
2018-05-27T12:12:21.617Z,290
2018-05-27T12:13:30.533Z,275
2018-05-27T12:14:39.194Z,290
2018-05-27T12:15:47.850Z,315
2018-05-27T12:16:56.508Z,335
2018-05-27T12:18:05.163Z,315
2018-05-27T12:19:13.823Z,250
2018-05-27T12:20:22.478Z,300
2018-05-27T12:21:31.136Z,265
2018-05-27T12:22:39.787Z,315
2018-05-27T12:23:48.447Z,315
2018-05-27T12:24:57.636Z,275
2018-05-27T12:26:06.297Z,300
2018-05-27T12:27:14.945Z,285
2018-05-27T12:28:23.606Z,315
2018-05-27T12:29:32.265Z,310
2018-05-27T12:30:40.924Z,300
2018-05-27T12:31:49.584Z,295
2018-05-27T12:32:58.494Z,290
2018-05-27T12:34:07.159Z,280
2018-05-27T12:35:15.811Z,275
2018-05-27T12:36:24.476Z,275
2018-05-27T12:37:33.123Z,270
2018-05-27T12:38:41.782Z,270
2018-05-27T12:39:50.434Z,265
2018-05-27T12:40:59.099Z,235
2018-05-27T12:42:07.746Z,240
2018-05-27T12:43:16.405Z,250
2018-05-27T12:44:25.060Z,275
2018-05-27T12:45:33.728Z,270
2018-05-27T12:46:42.384Z,210
2018-05-27T12:47:51.035Z,200
2018-05-27T12:48:59.692Z,190
2018-05-27T12:50:08.605Z,190
2018-05-27T12:51:17.271Z,195
2018-05-27T12:52:25.924Z,210
2018-05-27T12:53:34.587Z,240
2018-05-27T12:54:43.234Z,280
2018-05-27T12:55:52.165Z,305
2018-05-27T12:57:01.154Z,325
2018-05-27T12:58:10.092Z,340
2018-05-27T12:59:18.738Z,350
2018-05-27T13:00:27.404Z,350
2018-05-27T13:01:36.058Z,360
2018-05-27T13:02:44.982Z,360
2018-05-27T13:03:53.629Z,355
2018-05-27T13:05:02.287Z,360
2018-05-27T13:06:11.218Z,365
2018-05-27T13:07:20.151Z,375
2018-05-27T13:08:28.811Z,370
2018-05-27T13:09:37.460Z,400
2018-05-27T13:10:46.124Z,420
2018-05-27T13:11:54.772Z,415
2018-05-27T13:13:03.442Z,385
2018-05-27T13:14:12.089Z,415
2018-05-27T13:15:20.752Z,380
2018-05-27T13:16:30.009Z,385
2018-05-27T13:17:38.525Z,400
2018-05-27T13:18:47.173Z,430
2018-05-27T13:19:55.838Z,360
2018-05-27T13:21:04.756Z,340
2018-05-27T13:22:13.420Z,320
2018-05-27T13:23:22.073Z,340
2018-05-27T13:24:30.991Z,330
2018-05-27T13:25:39.650Z,320
2018-05-27T13:26:48.304Z,330
2018-05-27T13:27:57.234Z,280
2018-05-27T13:29:05.895Z,280
2018-05-27T13:30:14.554Z,225
2018-05-27T13:31:23.208Z,225
2018-05-27T13:32:32.404Z,285
2018-05-27T13:33:41.062Z,255
2018-05-27T13:34:49.980Z,255
2018-05-27T13:35:58.634Z,255
2018-05-27T13:37:07.296Z,250
2018-05-27T13:38:15.951Z,265
2018-05-27T13:39:24.611Z,245
2018-05-27T13:40:33.529Z,230
2018-05-27T13:41:42.459Z,215
2018-05-27T13:42:51.108Z,205
2018-05-27T13:43:59.766Z,195
2018-05-27T13:45:08.835Z,185
2018-05-27T13:46:17.487Z,175
2018-05-27T13:47:26.430Z,165
2018-05-27T13:48:35.362Z,160
2018-05-27T13:49:44.022Z,160
2018-05-27T13:50:52.673Z,160
2018-05-27T13:52:01.332Z,155
2018-05-27T13:53:09.991Z,155
2018-05-27T13:54:18.654Z,145
2018-05-27T13:55:27.368Z,145
2018-05-27T13:56:36.303Z,140
2018-05-27T13:57:44.956Z,140
2018-05-27T13:58:53.889Z,135
2018-05-27T14:00:02.552Z,135
2018-05-27T14:01:11.476Z,135
2018-05-27T14:02:20.125Z,130
2018-05-27T14:03:29.043Z,125
2018-05-27T14:04:37.704Z,130
2018-05-27T14:05:46.359Z,135
2018-05-27T14:06:55.280Z,140
2018-05-27T14:08:03.936Z,145
2018-05-27T14:09:12.599Z,155
2018-05-27T14:10:21.307Z,160
2018-05-27T14:11:29.916Z,165
2018-05-27T14:12:38.571Z,175
2018-05-27T14:13:47.496Z,185
2018-05-27T14:14:56.150Z,190
2018-05-27T14:16:04.811Z,190
2018-05-27T14:17:14.356Z,190
2018-05-27T14:18:23.280Z,185
2018-05-27T14:19:31.935Z,190
2018-05-27T14:20:40.592Z,195
2018-05-27T14:21:49.251Z,200
2018-05-27T14:22:57.917Z,210
2018-05-27T14:24:06.594Z,220
2018-05-27T14:25:15.558Z,230
2018-05-27T14:26:24.169Z,230
2018-05-27T14:27:32.822Z,230
2018-05-27T14:28:41.478Z,220
2018-05-27T14:29:50.131Z,210
2018-05-27T14:30:58.799Z,205
2018-05-27T14:32:07.710Z,200
2018-05-27T14:33:16.723Z,195
2018-05-27T14:34:25.309Z,200
2018-05-27T14:35:33.974Z,205
2018-05-27T14:36:42.630Z,215
2018-05-27T14:37:51.281Z,225
2018-05-27T14:38:59.934Z,240
2018-05-27T14:40:08.590Z,240
2018-05-27T14:41:17.255Z,245
2018-05-27T14:42:25.905Z,250
2018-05-27T14:43:34.565Z,250
2018-05-27T14:44:43.214Z,255
2018-05-27T14:45:51.880Z,265
2018-05-27T14:47:00.532Z,270
2018-05-27T14:48:09.193Z,270
2018-05-27T14:49:17.842Z,275
2018-05-27T14:50:26.546Z,270
2018-05-27T14:51:35.166Z,260
2018-05-27T14:52:43.825Z,245
2018-05-27T14:53:52.737Z,230
2018-05-27T14:55:01.399Z,215
2018-05-27T14:56:10.060Z,210
2018-05-27T14:57:18.991Z,205
2018-05-27T14:58:27.637Z,195
2018-05-27T14:59:36.287Z,190
2018-05-27T15:00:45.210Z,180
2018-05-27T15:01:53.859Z,170
2018-05-27T15:03:02.524Z,165
2018-05-27T15:04:11.238Z,160
2018-05-27T15:05:19.831Z,155
2018-05-27T15:06:28.484Z,145
2018-05-27T15:07:37.151Z,140
2018-05-27T15:08:45.802Z,135
2018-05-27T15:09:54.458Z,125
2018-05-27T15:11:03.113Z,115
2018-05-27T15:12:12.129Z,105
2018-05-27T15:13:21.030Z,100
2018-05-27T15:14:29.682Z,95
2018-05-27T15:15:38.334Z,85
2018-05-27T15:16:46.991Z,80
2018-05-27T15:17:55.655Z,85
2018-05-27T15:19:04.312Z,75
2018-05-27T15:20:12.969Z,70
2018-05-27T15:21:21.614Z,60
2018-05-27T15:22:30.272Z,55
2018-05-27T15:23:38.934Z,45
2018-05-27T15:24:47.591Z,45
2018-05-27T15:25:56.247Z,45
2018-05-27T15:27:05.165Z,45
2018-05-27T15:28:13.826Z,50
2018-05-27T15:29:22.479Z,55
2018-05-27T15:30:31.146Z,60
2018-05-27T15:31:39.795Z,65
2018-05-27T15:32:48.454Z,65
2018-05-27T15:33:57.103Z,65
2018-05-27T15:35:05.755Z,65
2018-05-27T15:36:14.418Z,60
2018-05-27T15:37:23.140Z,55
2018-05-27T15:38:31.734Z,55
2018-05-27T15:39:40.643Z,55
2018-05-27T15:40:49.312Z,55
2018-05-27T15:41:57.956Z,55
2018-05-27T15:43:06.613Z,60
2018-05-27T15:44:15.259Z,65
2018-05-27T15:45:23.919Z,70
2018-05-27T15:46:32.572Z,75
2018-05-27T15:47:41.497Z,75
2018-05-27T15:48:50.139Z,80
2018-05-27T15:49:58.795Z,80
2018-05-27T15:51:07.452Z,80
2018-05-27T15:52:16.111Z,80
2018-05-27T15:53:24.765Z,85
2018-05-27T15:54:33.673Z,90
2018-05-27T15:55:42.331Z,90
2018-05-27T15:56:50.981Z,90
2018-05-27T15:57:59.645Z,90
2018-05-27T15:59:08.288Z,90
2018-05-27T16:00:16.944Z,95
2018-05-27T16:01:25.594Z,100
2018-05-27T16:02:34.255Z,100
2018-05-27T16:03:42.899Z,100
2018-05-27T16:04:51.557Z,100